sensor_id;sensor_type;location;lat;lon;timestamp;temperature;humidity
12125;DHT22;6126;57.908;16.490;2022-07-09T00:01:41;14.00;91.20
12125;DHT22;6126;57.908;16.490;2022-07-09T00:04:07;14.00;91.30
12125;DHT22;6126;57.908;16.490;2022-07-09T00:06:33;14.20;91.40
12125;DHT22;6126;57.908;16.490;2022-07-09T00:08:59;13.80;91.20
12125;DHT22;6126;57.908;16.490;2022-07-09T00:11:25;14.10;91.40
12125;DHT22;6126;57.908;16.490;2022-07-09T00:13:51;14.00;91.30
12125;DHT22;6126;57.908;16.490;2022-07-09T00:16:16;14.00;91.30
12125;DHT22;6126;57.908;16.490;2022-07-09T00:18:42;13.80;91.10
12125;DHT22;6126;57.908;16.490;2022-07-09T00:21:09;14.00;91.20
12125;DHT22;6126;57.908;16.490;2022-07-09T00:23:35;14.00;91.30
12125;DHT22;6126;57.908;16.490;2022-07-09T00:26:00;13.80;91.30
12125;DHT22;6126;57.908;16.490;2022-07-09T00:28:26;13.50;91.20
12125;DHT22;6126;57.908;16.490;2022-07-09T00:30:53;13.50;91.40
12125;DHT22;6126;57.908;16.490;2022-07-09T00:33:19;13.50;91.40
12125;DHT22;6126;57.908;16.490;2022-07-09T00:35:44;13.60;91.50
12125;DHT22;6126;57.908;16.490;2022-07-09T00:38:10;13.30;91.40
12125;DHT22;6126;57.908;16.490;2022-07-09T00:40:36;13.50;91.60
12125;DHT22;6126;57.908;16.490;2022-07-09T00:43:03;13.30;91.60
12125;DHT22;6126;57.908;16.490;2022-07-09T00:45:29;13.40;91.70
12125;DHT22;6126;57.908;16.490;2022-07-09T00:47:54;13.50;91.80
12125;DHT22;6126;57.908;16.490;2022-07-09T00:50:20;13.50;91.70
12125;DHT22;6126;57.908;16.490;2022-07-09T00:52:47;13.80;91.80
12125;DHT22;6126;57.908;16.490;2022-07-09T00:55:13;14.00;91.80
12125;DHT22;6126;57.908;16.490;2022-07-09T00:57:40;14.00;91.70
12125;DHT22;6126;57.908;16.490;2022-07-09T01:00:08;14.10;91.70
12125;DHT22;6126;57.908;16.490;2022-07-09T01:02:34;14.10;91.60
12125;DHT22;6126;57.908;16.490;2022-07-09T01:05:00;14.30;91.60
12125;DHT22;6126;57.908;16.490;2022-07-09T01:07:26;14.30;91.50
12125;DHT22;6126;57.908;16.490;2022-07-09T01:09:52;14.10;91.30
12125;DHT22;6126;57.908;16.490;2022-07-09T01:12:18;14.20;91.30
12125;DHT22;6126;57.908;16.490;2022-07-09T01:14:43;14.10;91.20
12125;DHT22;6126;57.908;16.490;2022-07-09T01:17:09;14.20;91.30
12125;DHT22;6126;57.908;16.490;2022-07-09T01:19:35;14.40;91.30
12125;DHT22;6126;57.908;16.490;2022-07-09T01:22:02;14.50;91.40
12125;DHT22;6126;57.908;16.490;2022-07-09T01:24:28;14.50;91.30
12125;DHT22;6126;57.908;16.490;2022-07-09T01:26:54;14.50;91.30
12125;DHT22;6126;57.908;16.490;2022-07-09T01:29:21;14.50;91.30
12125;DHT22;6126;57.908;16.490;2022-07-09T01:31:47;14.60;91.30
12125;DHT22;6126;57.908;16.490;2022-07-09T01:34:13;14.70;91.30
12125;DHT22;6126;57.908;16.490;2022-07-09T01:36:39;14.40;91.10
12125;DHT22;6126;57.908;16.490;2022-07-09T01:39:05;14.60;91.20
12125;DHT22;6126;57.908;16.490;2022-07-09T01:41:31;14.50;91.10
12125;DHT22;6126;57.908;16.490;2022-07-09T01:43:57;14.80;91.20
12125;DHT22;6126;57.908;16.490;2022-07-09T01:46:23;14.50;91.00
12125;DHT22;6126;57.908;16.490;2022-07-09T01:48:49;14.40;90.90
12125;DHT22;6126;57.908;16.490;2022-07-09T01:51:15;14.30;90.90
12125;DHT22;6126;57.908;16.490;2022-07-09T01:53:41;14.40;90.90
12125;DHT22;6126;57.908;16.490;2022-07-09T01:56:08;14.60;91.00
12125;DHT22;6126;57.908;16.490;2022-07-09T01:58:36;14.50;90.90
12125;DHT22;6126;57.908;16.490;2022-07-09T02:01:03;14.50;90.90
12125;DHT22;6126;57.908;16.490;2022-07-09T02:03:29;14.40;90.80
12125;DHT22;6126;57.908;16.490;2022-07-09T02:05:55;14.60;90.90
12125;DHT22;6126;57.908;16.490;2022-07-09T02:08:22;14.70;90.90
12125;DHT22;6126;57.908;16.490;2022-07-09T02:10:49;14.70;90.90
12125;DHT22;6126;57.908;16.490;2022-07-09T02:13:15;14.90;91.00
12125;DHT22;6126;57.908;16.490;2022-07-09T02:15:42;14.60;90.80
12125;DHT22;6126;57.908;16.490;2022-07-09T02:18:08;14.80;90.80
12125;DHT22;6126;57.908;16.490;2022-07-09T02:20:34;14.60;90.70
12125;DHT22;6126;57.908;16.490;2022-07-09T02:23:00;14.70;90.70
12125;DHT22;6126;57.908;16.490;2022-07-09T02:25:26;14.60;90.70
12125;DHT22;6126;57.908;16.490;2022-07-09T02:27:53;14.40;90.60
12125;DHT22;6126;57.908;16.490;2022-07-09T02:30:18;14.60;90.60
12125;DHT22;6126;57.908;16.490;2022-07-09T02:32:44;14.60;90.60
12125;DHT22;6126;57.908;16.490;2022-07-09T02:35:10;14.60;90.60
12125;DHT22;6126;57.908;16.490;2022-07-09T02:37:36;14.60;90.60
12125;DHT22;6126;57.908;16.490;2022-07-09T02:40:02;14.80;90.70
12125;DHT22;6126;57.908;16.490;2022-07-09T02:42:29;14.70;90.60
12125;DHT22;6126;57.908;16.490;2022-07-09T02:44:55;14.80;90.70
12125;DHT22;6126;57.908;16.490;2022-07-09T02:47:21;14.70;90.60
12125;DHT22;6126;57.908;16.490;2022-07-09T02:49:47;14.60;90.50
12125;DHT22;6126;57.908;16.490;2022-07-09T02:52:13;14.50;90.40
12125;DHT22;6126;57.908;16.490;2022-07-09T02:54:39;14.70;90.50
12125;DHT22;6126;57.908;16.490;2022-07-09T02:57:05;14.50;90.40
12125;DHT22;6126;57.908;16.490;2022-07-09T02:59:31;14.90;90.60
12125;DHT22;6126;57.908;16.490;2022-07-09T03:01:57;14.90;90.50
12125;DHT22;6126;57.908;16.490;2022-07-09T03:04:23;14.80;90.50
12125;DHT22;6126;57.908;16.490;2022-07-09T03:06:49;14.70;90.40
12125;DHT22;6126;57.908;16.490;2022-07-09T03:09:15;14.90;90.50
12125;DHT22;6126;57.908;16.490;2022-07-09T03:11:41;14.80;90.30
12125;DHT22;6126;57.908;16.490;2022-07-09T03:14:07;14.90;90.40
12125;DHT22;6126;57.908;16.490;2022-07-09T03:16:33;14.90;90.40
12125;DHT22;6126;57.908;16.490;2022-07-09T03:18:59;15.00;90.40
12125;DHT22;6126;57.908;16.490;2022-07-09T03:21:25;14.70;90.30
12125;DHT22;6126;57.908;16.490;2022-07-09T03:23:51;14.70;90.30
12125;DHT22;6126;57.908;16.490;2022-07-09T03:26:17;14.70;90.20
12125;DHT22;6126;57.908;16.490;2022-07-09T03:28:43;14.80;90.60
12125;DHT22;6126;57.908;16.490;2022-07-09T03:31:08;14.80;90.30
12125;DHT22;6126;57.908;16.490;2022-07-09T03:33:34;14.80;90.30
12125;DHT22;6126;57.908;16.490;2022-07-09T03:36:00;14.80;90.30
12125;DHT22;6126;57.908;16.490;2022-07-09T03:38:26;15.00;90.40
12125;DHT22;6126;57.908;16.490;2022-07-09T03:40:52;14.80;90.20
12125;DHT22;6126;57.908;16.490;2022-07-09T03:43:18;15.00;90.30
12125;DHT22;6126;57.908;16.490;2022-07-09T03:45:44;15.00;90.30
12125;DHT22;6126;57.908;16.490;2022-07-09T03:48:10;15.10;90.30
12125;DHT22;6126;57.908;16.490;2022-07-09T03:50:36;14.70;90.10
12125;DHT22;6126;57.908;16.490;2022-07-09T03:53:02;14.90;90.20
12125;DHT22;6126;57.908;16.490;2022-07-09T03:55:28;14.70;90.10
12125;DHT22;6126;57.908;16.490;2022-07-09T03:57:54;14.90;90.20
12125;DHT22;6126;57.908;16.490;2022-07-09T04:00:20;14.90;90.20
12125;DHT22;6126;57.908;16.490;2022-07-09T04:02:46;15.00;90.20
12125;DHT22;6126;57.908;16.490;2022-07-09T04:05:12;15.10;90.30
12125;DHT22;6126;57.908;16.490;2022-07-09T04:07:38;14.90;90.10
12125;DHT22;6126;57.908;16.490;2022-07-09T04:10:05;15.10;90.20
12125;DHT22;6126;57.908;16.490;2022-07-09T04:12:31;15.10;90.20
12125;DHT22;6126;57.908;16.490;2022-07-09T04:14:57;14.90;90.10
12125;DHT22;6126;57.908;16.490;2022-07-09T04:17:23;15.00;90.20
12125;DHT22;6126;57.908;16.490;2022-07-09T04:19:49;15.00;90.10
12125;DHT22;6126;57.908;16.490;2022-07-09T04:22:15;15.10;90.20
12125;DHT22;6126;57.908;16.490;2022-07-09T04:24:41;15.00;90.10
12125;DHT22;6126;57.908;16.490;2022-07-09T04:27:06;15.10;90.10
12125;DHT22;6126;57.908;16.490;2022-07-09T04:29:32;15.00;90.10
12125;DHT22;6126;57.908;16.490;2022-07-09T04:31:58;15.10;90.10
12125;DHT22;6126;57.908;16.490;2022-07-09T04:34:24;15.10;90.00
12125;DHT22;6126;57.908;16.490;2022-07-09T04:36:50;15.30;90.10
12125;DHT22;6126;57.908;16.490;2022-07-09T04:39:16;15.30;90.10
12125;DHT22;6126;57.908;16.490;2022-07-09T04:41:42;15.20;90.00
12125;DHT22;6126;57.908;16.490;2022-07-09T04:44:08;15.20;90.00
12125;DHT22;6126;57.908;16.490;2022-07-09T04:46:36;15.20;90.00
12125;DHT22;6126;57.908;16.490;2022-07-09T04:49:02;15.40;90.10
12125;DHT22;6126;57.908;16.490;2022-07-09T04:51:28;15.20;90.00
12125;DHT22;6126;57.908;16.490;2022-07-09T04:53:54;15.30;90.00
12125;DHT22;6126;57.908;16.490;2022-07-09T04:56:20;15.30;90.00
12125;DHT22;6126;57.908;16.490;2022-07-09T04:58:46;15.30;90.00
12125;DHT22;6126;57.908;16.490;2022-07-09T05:01:19;15.40;90.00
12125;DHT22;6126;57.908;16.490;2022-07-09T05:03:49;15.30;90.00
12125;DHT22;6126;57.908;16.490;2022-07-09T05:06:16;15.30;90.00
12125;DHT22;6126;57.908;16.490;2022-07-09T05:08:43;15.40;90.00
12125;DHT22;6126;57.908;16.490;2022-07-09T05:11:09;15.40;90.00
12125;DHT22;6126;57.908;16.490;2022-07-09T05:13:39;15.20;89.80
12125;DHT22;6126;57.908;16.490;2022-07-09T05:16:06;15.50;90.00
12125;DHT22;6126;57.908;16.490;2022-07-09T05:18:33;15.30;89.90
12125;DHT22;6126;57.908;16.490;2022-07-09T05:20:59;15.40;90.00
12125;DHT22;6126;57.908;16.490;2022-07-09T05:23:25;15.30;89.80
12125;DHT22;6126;57.908;16.490;2022-07-09T05:25:51;15.20;89.60
12125;DHT22;6126;57.908;16.490;2022-07-09T05:28:18;15.60;90.00
12125;DHT22;6126;57.908;16.490;2022-07-09T05:30:44;15.50;90.00
12125;DHT22;6126;57.908;16.490;2022-07-09T05:33:10;15.70;90.00
12125;DHT22;6126;57.908;16.490;2022-07-09T05:35:36;15.70;90.00
12125;DHT22;6126;57.908;16.490;2022-07-09T05:38:02;15.50;89.80
12125;DHT22;6126;57.908;16.490;2022-07-09T05:40:28;15.80;90.00
12125;DHT22;6126;57.908;16.490;2022-07-09T05:42:54;15.50;89.60
12125;DHT22;6126;57.908;16.490;2022-07-09T05:45:20;15.70;89.80
12125;DHT22;6126;57.908;16.490;2022-07-09T05:47:46;15.80;89.70
12125;DHT22;6126;57.908;16.490;2022-07-09T05:50:12;15.70;89.50
12125;DHT22;6126;57.908;16.490;2022-07-09T05:52:38;15.80;89.50
12125;DHT22;6126;57.908;16.490;2022-07-09T05:55:04;15.70;89.30
12125;DHT22;6126;57.908;16.490;2022-07-09T05:57:30;15.70;89.20
12125;DHT22;6126;57.908;16.490;2022-07-09T05:59:57;16.10;89.50
12125;DHT22;6126;57.908;16.490;2022-07-09T06:02:23;16.10;89.40
12125;DHT22;6126;57.908;16.490;2022-07-09T06:04:49;16.00;89.20
12125;DHT22;6126;57.908;16.490;2022-07-09T06:07:15;16.20;89.30
12125;DHT22;6126;57.908;16.490;2022-07-09T06:09:41;16.20;89.10
12125;DHT22;6126;57.908;16.490;2022-07-09T06:12:08;16.20;89.00
12125;DHT22;6126;57.908;16.490;2022-07-09T06:14:34;16.20;88.90
12125;DHT22;6126;57.908;16.490;2022-07-09T06:17:00;16.10;88.70
12125;DHT22;6126;57.908;16.490;2022-07-09T06:19:33;16.30;88.70
12125;DHT22;6126;57.908;16.490;2022-07-09T06:21:59;16.30;88.60
12125;DHT22;6126;57.908;16.490;2022-07-09T06:24:25;16.60;88.70
12125;DHT22;6126;57.908;16.490;2022-07-09T06:26:51;16.60;88.50
12125;DHT22;6126;57.908;16.490;2022-07-09T06:29:17;16.60;88.30
12125;DHT22;6126;57.908;16.490;2022-07-09T06:31:43;16.70;88.30
12125;DHT22;6126;57.908;16.490;2022-07-09T06:34:09;16.50;88.00
12125;DHT22;6126;57.908;16.490;2022-07-09T06:36:36;16.70;88.00
12125;DHT22;6126;57.908;16.490;2022-07-09T06:39:02;16.50;87.80
12125;DHT22;6126;57.908;16.490;2022-07-09T06:41:46;16.70;88.00
12125;DHT22;6126;57.908;16.490;2022-07-09T06:44:12;16.90;88.10
12125;DHT22;6126;57.908;16.490;2022-07-09T06:46:38;17.00;87.90
12125;DHT22;6126;57.908;16.490;2022-07-09T06:49:04;16.90;87.70
12125;DHT22;6126;57.908;16.490;2022-07-09T06:51:31;16.90;87.70
12125;DHT22;6126;57.908;16.490;2022-07-09T06:53:57;17.10;87.70
12125;DHT22;6126;57.908;16.490;2022-07-09T06:56:23;17.30;87.70
12125;DHT22;6126;57.908;16.490;2022-07-09T06:58:49;17.10;87.30
12125;DHT22;6126;57.908;16.490;2022-07-09T07:01:15;17.40;87.40
12125;DHT22;6126;57.908;16.490;2022-07-09T07:03:41;17.40;87.10
12125;DHT22;6126;57.908;16.490;2022-07-09T07:06:07;17.60;87.00
12125;DHT22;6126;57.908;16.490;2022-07-09T07:08:33;17.70;86.90
12125;DHT22;6126;57.908;16.490;2022-07-09T07:10:59;17.60;86.60
12125;DHT22;6126;57.908;16.490;2022-07-09T07:13:25;17.70;86.50
12125;DHT22;6126;57.908;16.490;2022-07-09T07:15:51;17.80;86.40
12125;DHT22;6126;57.908;16.490;2022-07-09T07:18:17;17.80;86.10
12125;DHT22;6126;57.908;16.490;2022-07-09T07:20:43;17.90;85.90
12125;DHT22;6126;57.908;16.490;2022-07-09T07:23:09;18.10;85.80
12125;DHT22;6126;57.908;16.490;2022-07-09T07:25:35;18.00;85.40
12125;DHT22;6126;57.908;16.490;2022-07-09T07:28:01;18.00;85.10
12125;DHT22;6126;57.908;16.490;2022-07-09T07:30:29;18.30;85.00
12125;DHT22;6126;57.908;16.490;2022-07-09T07:32:58;18.40;84.80
12125;DHT22;6126;57.908;16.490;2022-07-09T07:35:25;18.50;84.60
12125;DHT22;6126;57.908;16.490;2022-07-09T07:37:51;18.50;84.10
12125;DHT22;6126;57.908;16.490;2022-07-09T07:40:17;18.60;83.70
12125;DHT22;6126;57.908;16.490;2022-07-09T07:42:43;18.70;83.40
12125;DHT22;6126;57.908;16.490;2022-07-09T07:45:09;18.80;83.20
12125;DHT22;6126;57.908;16.490;2022-07-09T07:47:36;18.80;82.80
12125;DHT22;6126;57.908;16.490;2022-07-09T07:50:02;18.90;82.70
12125;DHT22;6126;57.908;16.490;2022-07-09T07:52:29;19.00;82.60
12125;DHT22;6126;57.908;16.490;2022-07-09T07:54:55;19.10;82.30
12125;DHT22;6126;57.908;16.490;2022-07-09T07:57:21;19.20;81.80
12125;DHT22;6126;57.908;16.490;2022-07-09T07:59:48;19.30;81.50
12125;DHT22;6126;57.908;16.490;2022-07-09T08:02:14;19.50;81.20
12125;DHT22;6126;57.908;16.490;2022-07-09T08:04:40;19.60;80.90
12125;DHT22;6126;57.908;16.490;2022-07-09T08:07:06;19.70;80.40
12125;DHT22;6126;57.908;16.490;2022-07-09T08:09:32;19.80;80.20
12125;DHT22;6126;57.908;16.490;2022-07-09T08:12:00;19.90;79.90
12125;DHT22;6126;57.908;16.490;2022-07-09T08:14:26;20.00;79.40
12125;DHT22;6126;57.908;16.490;2022-07-09T08:16:52;20.10;78.90
12125;DHT22;6126;57.908;16.490;2022-07-09T08:19:18;20.10;78.60
12125;DHT22;6126;57.908;16.490;2022-07-09T08:21:44;20.20;78.70
12125;DHT22;6126;57.908;16.490;2022-07-09T08:24:10;20.30;78.40
12125;DHT22;6126;57.908;16.490;2022-07-09T08:26:36;20.30;78.10
12125;DHT22;6126;57.908;16.490;2022-07-09T08:29:02;20.40;77.60
12125;DHT22;6126;57.908;16.490;2022-07-09T08:31:28;20.30;77.40
12125;DHT22;6126;57.908;16.490;2022-07-09T08:33:54;20.20;77.40
12125;DHT22;6126;57.908;16.490;2022-07-09T08:36:20;20.20;77.20
12125;DHT22;6126;57.908;16.490;2022-07-09T08:38:46;20.20;77.10
12125;DHT22;6126;57.908;16.490;2022-07-09T08:41:15;20.20;76.90
12125;DHT22;6126;57.908;16.490;2022-07-09T08:43:51;20.00;76.80
12125;DHT22;6126;57.908;16.490;2022-07-09T08:46:18;19.90;76.80
12125;DHT22;6126;57.908;16.490;2022-07-09T08:48:45;19.70;76.90
12125;DHT22;6126;57.908;16.490;2022-07-09T08:51:11;19.70;77.00
12125;DHT22;6126;57.908;16.490;2022-07-09T08:53:43;19.70;76.90
12125;DHT22;6126;57.908;16.490;2022-07-09T08:56:10;19.80;76.60
12125;DHT22;6126;57.908;16.490;2022-07-09T08:58:39;20.00;76.10
12125;DHT22;6126;57.908;16.490;2022-07-09T09:01:07;20.10;75.60
12125;DHT22;6126;57.908;16.490;2022-07-09T09:03:33;20.00;75.50
12125;DHT22;6126;57.908;16.490;2022-07-09T09:06:09;20.10;75.40
12125;DHT22;6126;57.908;16.490;2022-07-09T09:08:37;20.20;75.00
12125;DHT22;6126;57.908;16.490;2022-07-09T09:11:06;20.30;74.50
12125;DHT22;6126;57.908;16.490;2022-07-09T09:13:40;20.30;74.20
12125;DHT22;6126;57.908;16.490;2022-07-09T09:16:08;20.30;74.10
12125;DHT22;6126;57.908;16.490;2022-07-09T09:21:10;20.50;73.70
12125;DHT22;6126;57.908;16.490;2022-07-09T09:23:48;20.60;73.30
12125;DHT22;6126;57.908;16.490;2022-07-09T09:28:53;21.10;72.30
12125;DHT22;6126;57.908;16.490;2022-07-09T09:33:56;21.50;71.50
12125;DHT22;6126;57.908;16.490;2022-07-09T09:36:34;21.60;71.00
12125;DHT22;6126;57.908;16.490;2022-07-09T09:41:52;21.40;70.70
12125;DHT22;6126;57.908;16.490;2022-07-09T09:44:29;21.20;70.90
12125;DHT22;6126;57.908;16.490;2022-07-09T09:46:58;21.20;71.10
12125;DHT22;6126;57.908;16.490;2022-07-09T09:49:24;21.20;70.80
12125;DHT22;6126;57.908;16.490;2022-07-09T09:52:02;21.30;70.60
12125;DHT22;6126;57.908;16.490;2022-07-09T09:54:35;21.40;70.20
12125;DHT22;6126;57.908;16.490;2022-07-09T09:57:07;21.50;69.80
12125;DHT22;6126;57.908;16.490;2022-07-09T09:59:42;21.70;69.40
12125;DHT22;6126;57.908;16.490;2022-07-09T10:02:10;21.80;69.00
12125;DHT22;6126;57.908;16.490;2022-07-09T10:04:37;21.80;68.70
12125;DHT22;6126;57.908;16.490;2022-07-09T10:07:05;21.90;68.60
12125;DHT22;6126;57.908;16.490;2022-07-09T10:09:32;22.00;68.40
12125;DHT22;6126;57.908;16.490;2022-07-09T10:11:58;22.10;68.10
12125;DHT22;6126;57.908;16.490;2022-07-09T10:16:51;22.10;67.50
12125;DHT22;6126;57.908;16.490;2022-07-09T10:19:30;22.10;67.30
12125;DHT22;6126;57.908;16.490;2022-07-09T10:22:00;22.10;67.10
12125;DHT22;6126;57.908;16.490;2022-07-09T10:24:30;22.00;67.20
12125;DHT22;6126;57.908;16.490;2022-07-09T10:27:11;21.90;67.30
12125;DHT22;6126;57.908;16.490;2022-07-09T10:29:55;21.90;67.20
12125;DHT22;6126;57.908;16.490;2022-07-09T10:32:32;22.10;66.90
12125;DHT22;6126;57.908;16.490;2022-07-09T10:35:02;22.20;66.40
12125;DHT22;6126;57.908;16.490;2022-07-09T10:37:42;22.20;66.20
12125;DHT22;6126;57.908;16.490;2022-07-09T10:40:16;22.10;66.10
12125;DHT22;6126;57.908;16.490;2022-07-09T10:42:56;22.00;66.20
12125;DHT22;6126;57.908;16.490;2022-07-09T10:48:00;22.10;66.00
12125;DHT22;6126;57.908;16.490;2022-07-09T10:50:28;22.30;65.70
12125;DHT22;6126;57.908;16.490;2022-07-09T10:52:57;22.40;65.20
12125;DHT22;6126;57.908;16.490;2022-07-09T10:55:28;22.40;64.70
12125;DHT22;6126;57.908;16.490;2022-07-09T10:57:55;22.30;64.80
12125;DHT22;6126;57.908;16.490;2022-07-09T11:00:28;22.30;64.90
12125;DHT22;6126;57.908;16.490;2022-07-09T11:03:00;22.30;64.80
12125;DHT22;6126;57.908;16.490;2022-07-09T11:05:50;22.40;64.50
12125;DHT22;6126;57.908;16.490;2022-07-09T11:08:16;22.40;64.10
12125;DHT22;6126;57.908;16.490;2022-07-09T11:10:42;22.40;63.80
12125;DHT22;6126;57.908;16.490;2022-07-09T11:13:08;22.20;63.60
12125;DHT22;6126;57.908;16.490;2022-07-09T11:15:35;22.20;63.80
12125;DHT22;6126;57.908;16.490;2022-07-09T11:18:03;22.30;63.60
12125;DHT22;6126;57.908;16.490;2022-07-09T11:20:41;22.40;63.10
12125;DHT22;6126;57.908;16.490;2022-07-09T11:23:13;22.40;62.60
12125;DHT22;6126;57.908;16.490;2022-07-09T11:25:41;22.60;62.30
12125;DHT22;6126;57.908;16.490;2022-07-09T11:28:07;22.70;62.00
12125;DHT22;6126;57.908;16.490;2022-07-09T11:30:34;22.60;61.70
12125;DHT22;6126;57.908;16.490;2022-07-09T11:33:02;22.60;61.80
12125;DHT22;6126;57.908;16.490;2022-07-09T11:35:31;22.60;61.80
12125;DHT22;6126;57.908;16.490;2022-07-09T11:38:04;22.60;61.50
12125;DHT22;6126;57.908;16.490;2022-07-09T11:40:34;22.60;61.40
12125;DHT22;6126;57.908;16.490;2022-07-09T11:43:00;22.40;61.50
12125;DHT22;6126;57.908;16.490;2022-07-09T11:45:28;22.30;61.90
12125;DHT22;6126;57.908;16.490;2022-07-09T11:48:06;22.30;61.90
12125;DHT22;6126;57.908;16.490;2022-07-09T11:50:40;22.50;61.80
12125;DHT22;6126;57.908;16.490;2022-07-09T11:53:25;22.50;61.50
12125;DHT22;6126;57.908;16.490;2022-07-09T11:56:17;22.40;61.30
12125;DHT22;6126;57.908;16.490;2022-07-09T11:58:49;22.20;61.60
12125;DHT22;6126;57.908;16.490;2022-07-09T12:01:15;22.10;61.60
12125;DHT22;6126;57.908;16.490;2022-07-09T12:03:47;22.00;61.60
12125;DHT22;6126;57.908;16.490;2022-07-09T12:06:14;22.10;61.60
12125;DHT22;6126;57.908;16.490;2022-07-09T12:08:41;22.20;61.20
12125;DHT22;6126;57.908;16.490;2022-07-09T12:11:07;22.50;60.80
12125;DHT22;6126;57.908;16.490;2022-07-09T12:13:33;22.60;60.50
12125;DHT22;6126;57.908;16.490;2022-07-09T12:15:59;22.60;60.50
12125;DHT22;6126;57.908;16.490;2022-07-09T12:18:24;22.70;60.40
12125;DHT22;6126;57.908;16.490;2022-07-09T12:20:51;22.70;60.20
12125;DHT22;6126;57.908;16.490;2022-07-09T12:23:17;22.70;60.00
12125;DHT22;6126;57.908;16.490;2022-07-09T12:25:43;22.70;59.80
12125;DHT22;6126;57.908;16.490;2022-07-09T12:28:09;22.70;59.60
12125;DHT22;6126;57.908;16.490;2022-07-09T12:30:35;22.80;59.40
12125;DHT22;6126;57.908;16.490;2022-07-09T12:33:01;22.90;59.20
12125;DHT22;6126;57.908;16.490;2022-07-09T12:35:27;23.10;58.90
12125;DHT22;6126;57.908;16.490;2022-07-09T12:37:53;23.10;58.60
12125;DHT22;6126;57.908;16.490;2022-07-09T12:40:22;23.00;58.60
12125;DHT22;6126;57.908;16.490;2022-07-09T12:42:48;22.90;58.70
12125;DHT22;6126;57.908;16.490;2022-07-09T12:45:14;22.90;58.90
12125;DHT22;6126;57.908;16.490;2022-07-09T12:47:40;22.80;58.80
12125;DHT22;6126;57.908;16.490;2022-07-09T12:50:07;22.90;58.60
12125;DHT22;6126;57.908;16.490;2022-07-09T12:52:34;22.70;58.60
12125;DHT22;6126;57.908;16.490;2022-07-09T12:55:01;22.50;58.60
12125;DHT22;6126;57.908;16.490;2022-07-09T12:57:28;22.40;58.70
12125;DHT22;6126;57.908;16.490;2022-07-09T12:59:54;22.30;58.80
12125;DHT22;6126;57.908;16.490;2022-07-09T13:02:20;22.20;58.90
12125;DHT22;6126;57.908;16.490;2022-07-09T13:04:46;22.10;59.00
12125;DHT22;6126;57.908;16.490;2022-07-09T13:07:12;22.10;59.00
12125;DHT22;6126;57.908;16.490;2022-07-09T13:09:39;22.30;58.70
12125;DHT22;6126;57.908;16.490;2022-07-09T13:12:05;22.50;58.30
12125;DHT22;6126;57.908;16.490;2022-07-09T13:14:31;22.70;58.00
12125;DHT22;6126;57.908;16.490;2022-07-09T13:16:57;22.60;57.80
12125;DHT22;6126;57.908;16.490;2022-07-09T13:19:23;22.50;57.90
12125;DHT22;6126;57.908;16.490;2022-07-09T13:21:50;22.40;58.00
12125;DHT22;6126;57.908;16.490;2022-07-09T13:24:15;22.30;58.70
12125;DHT22;6126;57.908;16.490;2022-07-09T13:26:42;22.40;58.50
12125;DHT22;6126;57.908;16.490;2022-07-09T13:29:08;22.60;57.60
12125;DHT22;6126;57.908;16.490;2022-07-09T13:31:34;22.70;57.20
12125;DHT22;6126;57.908;16.490;2022-07-09T13:34:00;22.90;57.00
12125;DHT22;6126;57.908;16.490;2022-07-09T13:36:26;23.00;56.70
12125;DHT22;6126;57.908;16.490;2022-07-09T13:38:51;23.10;56.50
12125;DHT22;6126;57.908;16.490;2022-07-09T13:41:17;23.20;56.40
12125;DHT22;6126;57.908;16.490;2022-07-09T13:43:44;23.20;56.40
12125;DHT22;6126;57.908;16.490;2022-07-09T13:46:13;23.20;56.30
12125;DHT22;6126;57.908;16.490;2022-07-09T13:48:39;23.30;56.10
12125;DHT22;6126;57.908;16.490;2022-07-09T13:51:05;23.30;56.00
12125;DHT22;6126;57.908;16.490;2022-07-09T13:53:31;23.20;56.00
12125;DHT22;6126;57.908;16.490;2022-07-09T13:55:58;23.10;56.20
12125;DHT22;6126;57.908;16.490;2022-07-09T13:58:25;23.00;56.20
12125;DHT22;6126;57.908;16.490;2022-07-09T14:00:51;23.00;56.10
12125;DHT22;6126;57.908;16.490;2022-07-09T14:03:17;23.10;55.90
12125;DHT22;6126;57.908;16.490;2022-07-09T14:05:43;23.20;55.70
12125;DHT22;6126;57.908;16.490;2022-07-09T14:08:09;23.30;55.50
12125;DHT22;6126;57.908;16.490;2022-07-09T14:10:35;23.50;55.40
12125;DHT22;6126;57.908;16.490;2022-07-09T14:13:02;23.60;55.20
12125;DHT22;6126;57.908;16.490;2022-07-09T14:15:29;23.60;55.10
12125;DHT22;6126;57.908;16.490;2022-07-09T14:17:56;23.60;55.00
12125;DHT22;6126;57.908;16.490;2022-07-09T14:20:23;23.50;54.90
12125;DHT22;6126;57.908;16.490;2022-07-09T14:22:48;23.40;54.80
12125;DHT22;6126;57.908;16.490;2022-07-09T14:25:14;23.40;54.70
12125;DHT22;6126;57.908;16.490;2022-07-09T14:27:41;23.30;54.60
12125;DHT22;6126;57.908;16.490;2022-07-09T14:30:07;23.30;54.50
12125;DHT22;6126;57.908;16.490;2022-07-09T14:32:34;23.20;54.50
12125;DHT22;6126;57.908;16.490;2022-07-09T14:35:00;23.00;54.70
12125;DHT22;6126;57.908;16.490;2022-07-09T14:37:26;22.90;55.00
12125;DHT22;6126;57.908;16.490;2022-07-09T14:39:53;22.80;54.90
12125;DHT22;6126;57.908;16.490;2022-07-09T14:42:19;22.80;55.00
12125;DHT22;6126;57.908;16.490;2022-07-09T14:44:45;22.80;54.90
12125;DHT22;6126;57.908;16.490;2022-07-09T14:47:11;22.90;54.80
12125;DHT22;6126;57.908;16.490;2022-07-09T14:49:37;22.90;54.60
12125;DHT22;6126;57.908;16.490;2022-07-09T14:52:03;23.00;54.50
12125;DHT22;6126;57.908;16.490;2022-07-09T14:54:29;23.00;54.40
12125;DHT22;6126;57.908;16.490;2022-07-09T14:56:55;22.90;54.30
12125;DHT22;6126;57.908;16.490;2022-07-09T14:59:21;22.70;54.40
12125;DHT22;6126;57.908;16.490;2022-07-09T15:01:47;22.50;54.50
12125;DHT22;6126;57.908;16.490;2022-07-09T15:04:13;22.30;54.60
12125;DHT22;6126;57.908;16.490;2022-07-09T15:06:41;22.20;54.90
12125;DHT22;6126;57.908;16.490;2022-07-09T15:09:06;22.10;55.00
12125;DHT22;6126;57.908;16.490;2022-07-09T15:11:33;22.10;55.00
12125;DHT22;6126;57.908;16.490;2022-07-09T15:13:58;22.20;54.90
12125;DHT22;6126;57.908;16.490;2022-07-09T15:16:24;22.20;54.80
12125;DHT22;6126;57.908;16.490;2022-07-09T15:18:50;22.10;54.70
12125;DHT22;6126;57.908;16.490;2022-07-09T15:21:16;22.00;54.90
12125;DHT22;6126;57.908;16.490;2022-07-09T15:23:42;21.90;54.90
12125;DHT22;6126;57.908;16.490;2022-07-09T15:26:08;22.00;54.90
12125;DHT22;6126;57.908;16.490;2022-07-09T15:28:34;22.00;54.90
12125;DHT22;6126;57.908;16.490;2022-07-09T15:31:00;22.10;54.80
12125;DHT22;6126;57.908;16.490;2022-07-09T15:33:26;22.20;54.60
12125;DHT22;6126;57.908;16.490;2022-07-09T15:35:52;22.30;54.50
12125;DHT22;6126;57.908;16.490;2022-07-09T15:38:18;22.20;54.40
12125;DHT22;6126;57.908;16.490;2022-07-09T15:40:43;22.20;54.50
12125;DHT22;6126;57.908;16.490;2022-07-09T15:43:09;22.00;54.50
12125;DHT22;6126;57.908;16.490;2022-07-09T15:45:35;21.90;54.80